KVIH/VIH METAR and TAF weather

Enter ICAO airport designator
Station Type Date Time Source
KVIH METAR 2020/04/06 10:53 UTC NOAA

KVIH 061053Z AUTO 15007KT 10SM OVC035 10/08 A3006 RMK AO2 SLP180 T01000083


Station Type Date Time Source
KVIH Decoded METAR 2020/04/06 10:53 UTC NOAA

ROLLA/VICHY ROLLA NATIONAL, MO, United States (KVIH) 38-08N 91-46W 333M
Apr 06, 2020 - 06:53 AM EDT / 2020.04.06 1053 UTC
Wind: from the SSE (150 degrees) at 8 MPH (7 KT):0
Visibility: 10 mile(s):0
Sky conditions: overcast
Temperature: 50.0 F (10.0 C)
Dew Point: 46.9 F (8.3 C)
Relative Humidity: 89%
Pressure (altimeter): 30.06 in. Hg (1017 hPa)
ob: KVIH 061053Z AUTO 15007KT 10SM OVC035 10/08 A3006 RMK AO2 SLP180 T01000083
cycle: 11

Station Type Date Time Source
KVIH TAF UTC NOAA

Error!

Example: see airport list